Time;durP1;ratioP1;P1;durP2;ratioP2;P2;SDS_P1;SDS_P2;PMS_P1;PMS_P2;Temp;Humidity;BMP_temperature;BMP_pressure;BME280_temperature;BME280_humidity;BME280_pressure;Samples;Min_cycle;Max_cycle;Signal;HPM_P1;HPM_P2
2020/12/15 00:01:29;;;;;;;24.25;14.57;;;3.40;99.90;;;;;;5013697;28;20018;-76
2020/12/15 00:03:54;;;;;;;26.35;15.25;;;3.40;99.90;;;;;;5013665;28;20072;-76
2020/12/15 00:06:20;;;;;;;25.45;14.75;;;3.40;99.90;;;;;;5015124;28;20028;-76
2020/12/15 00:08:45;;;;;;;27.98;15.48;;;3.40;99.90;;;;;;5014941;28;20568;-76
2020/12/15 00:11:17;;;;;;;23.27;14.93;;;3.40;99.90;;;;;;5013432;28;20040;-75
2020/12/15 00:13:46;;;;;;;22.60;14.40;;;3.40;99.90;;;;;;5014650;28;20021;-76
2020/12/15 00:16:17;;;;;;;24.45;14.18;;;3.40;99.90;;;;;;5014576;28;20118;-76
2020/12/15 00:18:43;;;;;;;25.38;14.43;;;3.40;99.90;;;;;;5014552;28;20400;-76
2020/12/15 00:21:08;;;;;;;25.63;14.25;;;3.40;99.90;;;;;;5014071;28;20029;-76
2020/12/15 00:23:34;;;;;;;24.98;14.35;;;3.50;99.90;;;;;;5014430;28;20022;-76
2020/12/15 00:25:59;;;;;;;25.42;14.85;;;3.50;99.90;;;;;;5014656;28;20030;-76
2020/12/15 00:28:25;;;;;;;22.98;14.15;;;3.50;99.90;;;;;;5014643;28;20048;-76
2020/12/15 00:30:51;;;;;;;27.05;14.30;;;3.50;99.90;;;;;;5014445;28;20117;-76
2020/12/15 00:33:17;;;;;;;23.45;14.43;;;3.50;99.90;;;;;;5013015;28;20065;-76
2020/12/15 00:35:43;;;;;;;24.95;15.00;;;3.50;99.90;;;;;;5012336;28;20068;-76
2020/12/15 00:38:08;;;;;;;24.27;14.27;;;3.60;99.90;;;;;;5013893;28;20038;-76
2020/12/15 00:40:34;;;;;;;22.50;14.38;;;3.60;99.90;;;;;;5014629;28;20032;-76
2020/12/15 00:42:59;;;;;;;22.65;14.63;;;3.60;99.90;;;;;;5012804;28;20136;-75
2020/12/15 00:45:25;;;;;;;22.98;14.80;;;3.60;99.90;;;;;;5014047;28;20021;-76
2020/12/15 00:47:51;;;;;;;24.83;14.88;;;3.60;99.90;;;;;;5014827;28;20026;-76
2020/12/15 00:50:17;;;;;;;24.77;14.98;;;3.60;99.90;;;;;;5014254;28;20484;-75
2020/12/15 00:52:42;;;;;;;25.00;15.85;;;3.60;99.90;;;;;;5013556;28;20113;-76
2020/12/15 00:55:08;;;;;;;23.10;14.80;;;3.60;99.90;;;;;;5012580;28;20030;-76
2020/12/15 00:57:33;;;;;;;26.35;16.20;;;3.60;99.90;;;;;;5014094;28;20069;-76
2020/12/15 00:59:59;;;;;;;26.05;16.05;;;3.60;99.90;;;;;;5012449;28;20088;-76
2020/12/15 01:02:25;;;;;;;27.65;15.93;;;3.60;99.90;;;;;;5013695;28;20441;-76
2020/12/15 01:04:51;;;;;;;26.38;15.18;;;3.60;99.90;;;;;;5012572;28;20033;-76
2020/12/15 01:07:16;;;;;;;25.70;14.82;;;3.70;99.90;;;;;;5012455;28;20022;-76
2020/12/15 01:09:42;;;;;;;27.80;16.45;;;3.60;99.90;;;;;;5013770;28;20036;-76
2020/12/15 01:12:11;;;;;;;31.55;16.73;;;3.60;99.90;;;;;;5012274;28;20036;-76
2020/12/15 01:14:37;;;;;;;32.85;18.77;;;3.70;99.90;;;;;;5013528;28;20542;-76
2020/12/15 01:17:06;;;;;;;33.00;19.40;;;3.70;99.90;;;;;;5013496;28;20101;-75
2020/12/15 01:19:31;;;;;;;27.83;16.38;;;3.60;99.90;;;;;;5012214;28;20488;-75
2020/12/15 01:21:57;;;;;;;29.95;16.48;;;3.60;99.90;;;;;;5013259;28;20072;-75
2020/12/15 01:24:25;;;;;;;30.38;17.98;;;3.60;99.90;;;;;;5013399;28;20105;-76
2020/12/15 01:26:51;;;;;;;29.58;17.15;;;3.60;99.90;;;;;;5013445;28;20021;-76
2020/12/15 01:29:17;;;;;;;33.10;17.80;;;3.70;99.90;;;;;;5013400;28;20481;-76
2020/12/15 01:31:42;;;;;;;26.80;14.90;;;3.70;99.90;;;;;;5013286;28;20026;-76
2020/12/15 01:34:08;;;;;;;28.27;15.65;;;3.70;99.90;;;;;;5013541;28;20058;-76
2020/12/15 01:36:34;;;;;;;26.88;16.08;;;3.70;99.90;;;;;;5013292;28;20036;-77
2020/12/15 01:39:00;;;;;;;29.35;17.50;;;3.80;99.90;;;;;;5011810;28;20022;-76
2020/12/15 01:41:25;;;;;;;26.77;16.45;;;3.80;99.90;;;;;;4996199;28;20116;-76
2020/12/15 01:44:02;;;;;;;28.70;16.80;;;3.80;99.90;;;;;;5011820;28;20121;-76
2020/12/15 01:46:29;;;;;;;31.20;17.27;;;3.70;99.90;;;;;;5013135;28;20026;-76
2020/12/15 01:48:56;;;;;;;27.08;16.48;;;3.70;99.90;;;;;;5011552;28;20489;-75
2020/12/15 01:51:23;;;;;;;29.17;16.33;;;3.60;99.90;;;;;;5013034;28;20044;-76
2020/12/15 01:53:49;;;;;;;28.00;16.30;;;3.60;99.90;;;;;;5013058;28;20105;-76
2020/12/15 01:56:15;;;;;;;26.73;16.58;;;3.70;99.90;;;;;;5013066;28;20101;-76
2020/12/15 01:58:43;;;;;;;27.42;15.98;;;3.70;99.90;;;;;;5011860;28;20064;-76
2020/12/15 02:01:08;;;;;;;27.95;16.30;;;3.70;99.90;;;;;;4995382;28;20022;-76
2020/12/15 02:03:34;;;;;;;27.63;15.85;;;3.70;99.90;;;;;;5012949;28;20096;-76
2020/12/15 02:06:00;;;;;;;26.40;15.75;;;3.60;99.90;;;;;;5013028;28;20061;-76
2020/12/15 02:08:26;;;;;;;28.23;17.23;;;3.60;99.90;;;;;;5012937;28;20391;-76
2020/12/15 02:10:51;;;;;;;33.00;18.27;;;3.60;99.90;;;;;;5012817;28;20112;-76
2020/12/15 02:13:17;;;;;;;34.40;18.88;;;3.60;99.90;;;;;;5012895;28;20026;-76
2020/12/15 02:15:43;;;;;;;37.40;21.15;;;3.60;99.90;;;;;;5012867;28;20101;-76
2020/12/15 02:18:08;;;;;;;39.03;21.77;;;3.60;99.90;;;;;;5011645;28;20022;-76
2020/12/15 02:20:37;;;;;;;39.60;22.27;;;3.60;99.90;;;;;;5012747;28;20030;-76
2020/12/15 02:23:02;;;;;;;40.42;22.67;;;3.60;99.90;;;;;;4995226;28;20481;-76
2020/12/15 02:25:28;;;;;;;36.92;21.90;;;3.60;99.90;;;;;;5012755;28;20022;-76
2020/12/15 02:27:54;;;;;;;41.65;24.20;;;3.60;99.90;;;;;;5011583;28;20543;-76
2020/12/15 02:30:20;;;;;;;42.60;23.95;;;3.60;99.90;;;;;;5011436;28;20109;-76
2020/12/15 02:32:45;;;;;;;38.42;22.55;;;3.60;99.90;;;;;;5011468;28;20117;-76
2020/12/15 02:35:11;;;;;;;41.20;23.92;;;3.60;99.90;;;;;;5012749;28;20049;-76
2020/12/15 02:37:36;;;;;;;42.15;23.23;;;3.60;99.90;;;;;;5012753;28;20030;-76
2020/12/15 02:40:05;;;;;;;43.88;23.63;;;3.60;99.90;;;;;;5012591;28;20026;-76
2020/12/15 02:42:31;;;;;;;41.78;23.52;;;3.60;99.90;;;;;;4995095;28;20117;-75
2020/12/15 02:44:58;;;;;;;42.35;24.65;;;3.60;99.90;;;;;;5012612;28;20030;-75
2020/12/15 02:47:24;;;;;;;45.85;25.05;;;3.60;99.90;;;;;;5012617;28;20393;-75
2020/12/15 02:49:50;;;;;;;43.00;24.83;;;3.50;99.90;;;;;;5011357;28;20080;-76
2020/12/15 02:52:15;;;;;;;45.80;25.42;;;3.50;99.90;;;;;;5012374;28;20075;-76
2020/12/15 02:54:42;;;;;;;43.35;23.67;;;3.50;99.90;;;;;;5012655;28;20101;-76
2020/12/15 02:57:08;;;;;;;42.03;23.35;;;3.50;99.90;;;;;;5012838;28;20026;-76
2020/12/15 02:59:33;;;;;;;41.00;23.65;;;3.50;99.90;;;;;;5013334;28;20428;-76
2020/12/15 03:01:59;;;;;;;44.00;24.27;;;3.50;99.90;;;;;;5016141;28;20017;-76
2020/12/15 03:04:25;;;;;;;41.72;25.17;;;3.50;99.90;;;;;;5016432;28;20018;-76
2020/12/15 03:06:50;;;;;;;43.95;23.80;;;3.60;99.90;;;;;;5014774;28;20018;-75
2020/12/15 03:09:16;;;;;;;41.35;23.70;;;3.50;99.90;;;;;;5014748;28;20033;-76
2020/12/15 03:11:41;;;;;;;39.47;22.40;;;3.60;99.90;;;;;;5014700;28;20480;-77
2020/12/15 03:14:07;;;;;;;40.92;23.42;;;3.60;99.90;;;;;;5015862;28;20374;-76
2020/12/15 03:16:33;;;;;;;40.28;21.90;;;3.50;99.90;;;;;;5014544;28;20369;-76
2020/12/15 03:18:59;;;;;;;40.08;22.33;;;3.50;99.90;;;;;;5015729;28;20022;-76
2020/12/15 03:21:24;;;;;;;41.00;22.23;;;3.40;99.90;;;;;;5050535;22;20042;-78
2020/12/15 03:23:51;;;;;;;40.85;21.65;;;3.40;99.90;;;;;;5042222;28;20100;-79
2020/12/15 03:26:17;;;;;;;38.80;22.92;;;3.40;99.90;;;;;;5040607;28;20036;-79
2020/12/15 03:28:43;;;;;;;38.47;22.20;;;3.40;99.90;;;;;;5057208;28;20049;-79
2020/12/15 03:31:09;;;;;;;37.55;21.23;;;3.40;99.90;;;;;;5056616;28;20032;-78
2020/12/15 03:33:34;;;;;;;34.47;19.65;;;3.40;99.90;;;;;;5056769;28;20029;-80
2020/12/15 03:36:00;;;;;;;34.53;20.02;;;3.40;99.90;;;;;;5056985;28;20035;-79
2020/12/15 03:38:26;;;;;;;34.55;20.20;;;3.40;99.90;;;;;;5041433;28;20108;-79
2020/12/15 03:40:52;;;;;;;34.05;20.23;;;3.40;99.90;;;;;;5057318;28;20080;-79
2020/12/15 03:43:17;;;;;;;32.42;18.98;;;3.40;99.90;;;;;;5042195;28;20025;-79
2020/12/15 03:45:44;;;;;;;34.30;19.38;;;3.30;99.90;;;;;;5042450;28;20048;-80
2020/12/15 03:48:13;;;;;;;32.22;18.83;;;3.30;99.90;;;;;;5057887;28;20021;-80
2020/12/15 03:50:39;;;;;;;37.17;20.35;;;3.30;99.90;;;;;;5058037;28;20036;-80
2020/12/15 03:53:05;;;;;;;37.33;20.75;;;3.30;99.90;;;;;;5042232;28;20025;-80
2020/12/15 03:55:30;;;;;;;35.78;19.35;;;3.40;99.90;;;;;;5057349;28;20415;-80
2020/12/15 03:57:56;;;;;;;37.17;20.20;;;3.40;99.90;;;;;;5056411;28;20022;-80
2020/12/15 04:00:22;;;;;;;38.78;22.05;;;3.40;99.90;;;;;;5041443;28;20048;-80
2020/12/15 04:02:49;;;;;;;40.10;21.70;;;3.40;99.90;;;;;;5057317;28;20044;-80
2020/12/15 04:05:14;;;;;;;39.53;22.00;;;3.40;99.90;;;;;;5057118;28;20495;-79
2020/12/15 04:07:43;;;;;;;37.85;21.02;;;3.30;99.90;;;;;;5056292;28;20045;-79
2020/12/15 04:10:10;;;;;;;39.53;22.33;;;3.30;99.90;;;;;;5041100;28;20032;-78
2020/12/15 04:12:36;;;;;;;39.65;20.65;;;3.30;99.90;;;;;;5056648;28;20032;-80
2020/12/15 04:15:05;;;;;;;39.03;21.92;;;3.30;99.90;;;;;;5056921;28;20039;-80
2020/12/15 04:17:36;;;;;;;34.63;20.40;;;3.30;99.90;;;;;;5041427;28;20100;-80
2020/12/15 04:20:05;;;;;;;32.53;18.98;;;3.30;99.90;;;;;;5041299;28;20388;-79
2020/12/15 04:22:31;;;;;;;32.28;19.13;;;3.20;99.90;;;;;;5056139;28;20523;-79
2020/12/15 04:24:56;;;;;;;32.92;18.05;;;3.20;99.90;;;;;;5056356;28;20029;-79
2020/12/15 04:27:22;;;;;;;34.50;19.33;;;3.30;99.90;;;;;;5041790;28;20056;-79
2020/12/15 04:29:47;;;;;;;34.40;18.77;;;3.20;99.90;;;;;;5056021;28;20036;-79
2020/12/15 04:32:13;;;;;;;33.85;19.85;;;3.20;99.90;;;;;;5039315;28;20022;-78
2020/12/15 04:34:38;;;;;;;35.38;19.02;;;3.10;99.90;;;;;;5040375;28;20030;-79
2020/12/15 04:37:04;;;;;;;33.97;18.98;;;3.10;99.90;;;;;;5041042;28;20104;-79
2020/12/15 04:39:29;;;;;;;40.55;21.42;;;3.10;99.90;;;;;;5040014;28;20064;-79
2020/12/15 04:41:55;;;;;;;39.80;21.35;;;3.10;99.90;;;;;;5039155;28;20022;-78
2020/12/15 04:44:21;;;;;;;38.50;20.25;;;3.10;99.90;;;;;;5055309;28;20033;-79
2020/12/15 04:47:34;;;;;;;43.80;20.65;;;3.10;99.90;;;;;;5039492;28;20132;-79
2020/12/15 04:50:06;;;;;;;39.17;20.80;;;3.10;99.90;;;;;;5048169;28;20403;-79
2020/12/15 04:53:03;;;;;;;39.55;20.58;;;3.20;99.90;;;;;;5038846;28;20032;-79
2020/12/15 04:55:29;;;;;;;37.15;19.25;;;3.20;99.90;;;;;;5035811;28;20496;-79
2020/12/15 04:57:59;;;;;;;38.88;19.95;;;3.10;99.90;;;;;;5039077;28;20051;-79
2020/12/15 05:00:24;;;;;;;42.58;21.20;;;3.10;99.90;;;;;;5038007;28;20032;-80
2020/12/15 05:02:51;;;;;;;40.20;21.38;;;3.10;99.90;;;;;;5037911;28;20025;-79
2020/12/15 05:05:17;;;;;;;39.25;20.67;;;3.10;99.90;;;;;;5038875;28;20021;-78
2020/12/15 05:07:44;;;;;;;36.70;20.38;;;3.20;99.90;;;;;;5039039;28;20391;-79
2020/12/15 05:10:15;;;;;;;41.58;20.55;;;3.20;99.90;;;;;;5053602;28;20113;-78
2020/12/15 05:12:41;;;;;;;48.22;21.85;;;3.10;99.90;;;;;;5054236;28;20029;-78
2020/12/15 05:15:12;;;;;;;51.13;21.52;;;3.10;99.90;;;;;;5038269;28;20029;-80
2020/12/15 05:17:39;;;;;;;46.50;21.70;;;3.10;99.90;;;;;;5053412;28;20033;-79
2020/12/15 05:20:06;;;;;;;45.83;21.92;;;3.10;99.90;;;;;;5039045;28;20028;-79
2020/12/15 05:22:44;;;;;;;47.20;22.05;;;3.10;99.90;;;;;;5036672;28;20029;-79
2020/12/15 05:25:28;;;;;;;47.40;21.95;;;3.10;99.90;;;;;;5038737;28;20028;-78
2020/12/15 05:27:54;;;;;;;51.70;24.00;;;3.10;99.90;;;;;;5054179;28;20488;-79
2020/12/15 05:30:20;;;;;;;57.83;24.48;;;3.20;99.90;;;;;;5053492;28;20029;-79
2020/12/15 05:32:48;;;;;;;69.00;28.52;;;3.20;99.90;;;;;;5038302;28;20029;-79
2020/12/15 05:35:14;;;;;;;79.55;28.77;;;3.20;99.90;;;;;;5038537;28;20071;-79
2020/12/15 05:37:44;;;;;;;82.50;29.15;;;3.20;99.90;;;;;;5038973;28;20400;-78
2020/12/15 05:40:11;;;;;;;79.32;29.02;;;3.10;99.90;;;;;;5053438;28;20112;-79
2020/12/15 05:42:37;;;;;;;80.10;28.35;;;3.10;99.90;;;;;;5039165;28;20022;-79
2020/12/15 05:45:04;;;;;;;77.25;27.95;;;3.00;99.90;;;;;;5054575;28;20028;-79
2020/12/15 05:47:32;;;;;;;76.32;26.98;;;3.00;99.90;;;;;;5054574;28;20022;-79
2020/12/15 05:49:58;;;;;;;75.32;26.48;;;3.00;99.90;;;;;;5038658;28;20079;-78
2020/12/15 05:52:30;;;;;;;75.28;28.00;;;3.00;99.90;;;;;;5054577;28;20033;-79
2020/12/15 05:55:11;;;;;;;58.63;24.98;;;3.00;99.90;;;;;;5040316;28;20181;-79
2020/12/15 05:57:37;;;;;;;71.65;23.83;;;3.00;99.90;;;;;;5040381;28;20060;-78
2020/12/15 06:00:09;;;;;;;66.82;23.80;;;2.90;99.90;;;;;;5039871;28;20025;-79
2020/12/15 06:02:35;;;;;;;73.30;25.17;;;2.90;99.90;;;;;;5039331;28;20469;-79
2020/12/15 06:05:01;;;;;;;63.97;25.88;;;2.90;99.90;;;;;;5039722;28;20018;-79
2020/12/15 06:07:28;;;;;;;69.32;27.25;;;2.80;99.90;;;;;;5039295;28;20033;-79
2020/12/15 06:09:57;;;;;;;82.38;29.17;;;2.80;99.90;;;;;;5040786;28;20025;-79
2020/12/15 06:12:23;;;;;;;67.57;27.02;;;2.80;99.90;;;;;;5041590;28;20552;-78
2020/12/15 06:14:49;;;;;;;74.28;27.42;;;2.70;99.90;;;;;;5041450;28;20057;-79
2020/12/15 06:17:20;;;;;;;73.78;27.73;;;2.70;99.90;;;;;;5040737;28;20103;-79
2020/12/15 06:19:51;;;;;;;79.30;28.30;;;2.70;99.90;;;;;;5040696;28;20022;-79
2020/12/15 06:22:18;;;;;;;79.97;28.58;;;2.80;99.90;;;;;;5040035;28;20033;-78
2020/12/15 06:24:54;;;;;;;80.97;28.77;;;2.80;99.90;;;;;;5054860;28;20021;-80
2020/12/15 06:27:28;;;;;;;90.40;28.50;;;2.90;99.90;;;;;;5039718;28;20021;-79
2020/12/15 06:29:54;;;;;;;91.07;30.52;;;2.90;99.90;;;;;;5038458;28;20029;-79
2020/12/15 06:32:20;;;;;;;77.47;27.52;;;2.80;99.90;;;;;;5038227;28;20063;-79
2020/12/15 06:34:47;;;;;;;104.53;30.33;;;2.80;99.90;;;;;;5054903;28;20033;-79
2020/12/15 06:37:17;;;;;;;77.82;31.02;;;2.80;99.90;;;;;;5043669;28;20085;-78
2020/12/15 06:40:00;;;;;;;76.47;27.92;;;2.80;99.90;;;;;;5041193;28;20025;-78
2020/12/15 06:42:27;;;;;;;82.40;26.80;;;2.80;99.90;;;;;;5042129;28;20028;-79
2020/12/15 06:45:07;;;;;;;71.55;25.00;;;2.80;99.90;;;;;;5054113;28;20025;-78
2020/12/15 06:47:34;;;;;;;59.28;24.13;;;2.80;99.90;;;;;;5038889;28;20022;-79
2020/12/15 06:50:13;;;;;;;81.53;26.63;;;2.80;99.90;;;;;;5039302;28;20048;-79
2020/12/15 06:52:39;;;;;;;63.53;24.95;;;2.80;99.90;;;;;;5054206;28;20029;-78
2020/12/15 06:55:05;;;;;;;63.60;24.20;;;2.80;99.90;;;;;;5054498;28;20079;-79
2020/12/15 06:57:35;;;;;;;64.60;23.67;;;2.80;99.90;;;;;;5053792;28;20032;-78
2020/12/15 07:00:08;;;;;;;65.50;24.50;;;2.80;99.90;;;;;;5038555;28;20492;-79
2020/12/15 07:02:34;;;;;;;60.13;25.70;;;2.80;99.90;;;;;;5038215;28;20022;-78
2020/12/15 07:05:22;;;;;;;68.35;25.98;;;2.70;99.90;;;;;;5038845;28;20071;-78
2020/12/15 07:07:53;;;;;;;62.80;23.83;;;2.80;99.90;;;;;;5038396;28;20021;-78
2020/12/15 07:10:20;;;;;;;57.45;23.98;;;2.80;99.90;;;;;;5038762;28;20030;-78
2020/12/15 07:12:47;;;;;;;59.10;26.42;;;2.70;99.90;;;;;;5053778;28;20079;-78
2020/12/15 07:15:14;;;;;;;62.42;25.92;;;2.80;99.90;;;;;;5053140;28;20040;-79
2020/12/15 07:17:48;;;;;;;65.93;27.40;;;2.70;99.90;;;;;;5038054;28;20030;-78
2020/12/15 07:20:15;;;;;;;56.03;24.85;;;2.70;99.90;;;;;;5038248;28;20492;-78
2020/12/15 07:22:41;;;;;;;62.17;25.77;;;2.70;99.90;;;;;;5038123;28;20034;-79
2020/12/15 07:25:08;;;;;;;68.72;27.83;;;2.70;99.90;;;;;;5053184;28;20046;-78
2020/12/15 07:27:35;;;;;;;64.40;26.95;;;2.70;99.90;;;;;;5053777;28;20021;-78
2020/12/15 07:30:02;;;;;;;62.60;24.88;;;2.70;99.90;;;;;;5039527;28;20025;-79
2020/12/15 07:32:28;;;;;;;57.92;25.75;;;2.70;99.90;;;;;;5055539;28;20030;-79
2020/12/15 07:35:17;;;;;;;59.03;24.70;;;2.80;99.90;;;;;;5040730;28;20094;-80
2020/12/15 07:37:44;;;;;;;60.58;25.92;;;2.80;99.90;;;;;;5055601;28;20075;-79
2020/12/15 07:40:18;;;;;;;59.35;25.10;;;2.80;99.90;;;;;;5039932;28;20025;-79
2020/12/15 07:42:58;;;;;;;59.10;25.10;;;2.90;99.90;;;;;;5038895;28;20049;-80
2020/12/15 07:45:25;;;;;;;63.10;25.65;;;2.90;99.90;;;;;;5037535;28;20044;-80
2020/12/15 07:47:52;;;;;;;55.97;24.85;;;2.90;99.90;;;;;;5053117;28;20116;-79
2020/12/15 07:50:26;;;;;;;71.10;25.88;;;2.90;99.90;;;;;;5053624;28;20030;-79
2020/12/15 07:52:52;;;;;;;68.72;27.83;;;2.90;99.90;;;;;;5037550;28;20026;-79
2020/12/15 07:55:18;;;;;;;60.80;27.58;;;2.90;99.90;;;;;;5053000;28;20120;-79
2020/12/15 07:57:44;;;;;;;62.58;25.10;;;3.00;99.90;;;;;;5037402;28;20496;-79
2020/12/15 08:00:09;;;;;;;52.58;23.63;;;3.00;99.90;;;;;;5052079;28;20124;-79
2020/12/15 08:02:35;;;;;;;55.92;24.08;;;3.00;99.90;;;;;;5037591;28;20029;-79
2020/12/15 08:05:10;;;;;;;43.70;21.13;;;3.00;99.90;;;;;;5052566;28;20026;-79
2020/12/15 08:08:05;;;;;;;47.55;22.15;;;3.10;99.90;;;;;;5052488;28;20618;-79
2020/12/15 08:10:33;;;;;;;46.60;22.27;;;3.20;99.90;;;;;;5035663;28;20049;-79
2020/12/15 08:13:04;;;;;;;41.35;20.45;;;3.20;99.90;;;;;;5037179;28;20481;-79
2020/12/15 08:15:36;;;;;;;42.58;21.58;;;3.20;99.90;;;;;;5052418;28;20037;-79
2020/12/15 08:18:06;;;;;;;46.63;21.23;;;3.20;99.90;;;;;;5052567;28;20496;-79
2020/12/15 08:20:34;;;;;;;46.17;21.38;;;3.20;99.90;;;;;;5052349;28;20036;-79
2020/12/15 08:23:08;;;;;;;44.75;21.08;;;3.20;99.90;;;;;;5036927;28;20017;-79
2020/12/15 08:25:36;;;;;;;37.20;18.95;;;3.30;99.90;;;;;;5036930;28;20096;-79
2020/12/15 08:28:24;;;;;;;41.22;21.15;;;3.40;99.90;;;;;;5036966;28;20048;-79
2020/12/15 08:30:55;;;;;;;37.13;20.60;;;3.40;99.90;;;;;;5052197;28;20523;-79
2020/12/15 08:33:25;;;;;;;39.28;21.48;;;3.40;99.90;;;;;;5052260;28;20044;-79
2020/12/15 08:35:51;;;;;;;42.30;23.42;;;3.40;99.90;;;;;;5052118;28;20052;-78
2020/12/15 08:38:18;;;;;;;42.70;22.90;;;3.40;99.90;;;;;;5052307;28;20026;-79
2020/12/15 08:40:50;;;;;;;36.75;19.83;;;3.50;99.90;;;;;;5051774;28;20021;-79
2020/12/15 08:43:18;;;;;;;35.42;17.70;;;3.50;99.90;;;;;;5052552;28;20021;-79
2020/12/15 08:45:44;;;;;;;37.90;18.20;;;3.60;99.90;;;;;;5036699;28;20025;-79
2020/12/15 08:48:18;;;;;;;30.90;17.25;;;3.70;99.90;;;;;;5037358;28;20388;-78
2020/12/15 08:50:45;;;;;;;32.10;17.08;;;3.70;99.90;;;;;;5052936;28;20124;-78
2020/12/15 08:53:11;;;;;;;35.50;18.02;;;3.80;99.90;;;;;;5052148;28;20025;-79
2020/12/15 08:55:38;;;;;;;43.45;19.65;;;3.80;99.90;;;;;;5052435;28;20036;-79
2020/12/15 08:58:06;;;;;;;41.40;19.73;;;3.90;99.90;;;;;;5036272;28;20025;-79
2020/12/15 09:00:36;;;;;;;33.08;18.90;;;3.90;99.90;;;;;;5036688;28;20085;-78
2020/12/15 09:03:15;;;;;;;33.10;16.65;;;3.90;99.90;;;;;;5036909;28;20045;-79
2020/12/15 09:05:51;;;;;;;31.67;16.88;;;3.90;99.90;;;;;;5036169;28;20400;-79
2020/12/15 09:08:18;;;;;;;27.25;15.73;;;3.90;99.90;;;;;;5036628;28;20507;-79
2020/12/15 09:10:43;;;;;;;26.33;16.10;;;4.00;99.90;;;;;;5036494;28;20076;-78
2020/12/15 09:13:09;;;;;;;25.30;15.02;;;4.00;99.90;;;;;;5051325;28;20021;-78
2020/12/15 09:15:49;;;;;;;25.60;14.85;;;4.00;99.90;;;;;;5035336;28;20029;-78
2020/12/15 09:18:15;;;;;;;21.85;12.40;;;4.00;99.90;;;;;;5036276;28;20033;-79
2020/12/15 09:20:41;;;;;;;25.75;14.75;;;4.00;99.90;;;;;;5035446;28;20034;-79
2020/12/15 09:23:07;;;;;;;21.80;12.52;;;4.10;99.90;;;;;;5043303;22;20049;-74
2020/12/15 09:25:32;;;;;;;20.95;12.55;;;4.20;99.90;;;;;;5012336;28;20018;-74
2020/12/15 09:27:58;;;;;;;21.45;12.52;;;4.30;99.90;;;;;;5013569;28;20026;-75
2020/12/15 09:30:24;;;;;;;22.00;12.05;;;4.40;99.90;;;;;;5013703;28;20485;-74
2020/12/15 09:32:49;;;;;;;22.30;13.55;;;4.50;99.90;;;;;;4997857;28;20037;-74
2020/12/15 09:35:15;;;;;;;20.00;12.63;;;4.70;99.90;;;;;;4993842;28;20138;-74
2020/12/15 09:37:41;;;;;;;18.77;11.30;;;4.80;99.90;;;;;;4993932;28;20045;-74
2020/12/15 09:40:09;;;;;;;20.02;11.65;;;4.90;99.90;;;;;;4993352;28;20030;-74
2020/12/15 09:42:42;;;;;;;13.32;9.52;;;5.00;99.90;;;;;;4992572;28;20018;-74
2020/12/15 09:45:08;;;;;;;16.10;10.10;;;5.20;99.90;;;;;;4993843;28;20033;-74
2020/12/15 09:47:39;;;;;;;14.18;9.43;;;5.20;99.90;;;;;;4992482;28;20428;-74
2020/12/15 09:50:05;;;;;;;17.10;10.73;;;5.30;99.90;;;;;;4993798;28;20022;-74
2020/12/15 09:52:30;;;;;;;22.10;12.52;;;5.30;99.90;;;;;;4992293;28;20482;-74
2020/12/15 09:54:56;;;;;;;19.55;11.88;;;5.50;99.90;;;;;;4992597;28;20157;-74
2020/12/15 09:57:21;;;;;;;17.17;10.75;;;5.60;99.90;;;;;;4992382;28;20022;-74
2020/12/15 09:59:47;;;;;;;18.17;11.68;;;5.70;99.90;;;;;;4992188;28;20041;-76
2020/12/15 10:02:12;;;;;;;16.75;11.80;;;5.80;99.90;;;;;;4993738;28;20018;-74
2020/12/15 10:04:41;;;;;;;18.65;11.43;;;5.90;99.90;;;;;;4993672;28;20023;-74
2020/12/15 10:07:06;;;;;;;15.70;10.32;;;5.90;99.90;;;;;;4993559;28;20022;-74
2020/12/15 10:09:32;;;;;;;15.95;10.93;;;5.90;99.90;;;;;;4995106;28;20064;-75
2020/12/15 10:11:57;;;;;;;18.23;10.25;;;6.10;99.90;;;;;;4997963;28;20022;-75
2020/12/15 10:14:23;;;;;;;18.25;10.07;;;6.20;99.90;;;;;;4996445;28;20023;-75
2020/12/15 10:16:48;;;;;;;16.25;9.95;;;6.30;99.90;;;;;;4997658;28;20076;-75
2020/12/15 10:19:14;;;;;;;17.90;11.07;;;6.40;99.90;;;;;;4980088;28;20030;-76
2020/12/15 10:21:39;;;;;;;19.00;11.55;;;6.60;99.90;;;;;;4995907;28;20026;-76
2020/12/15 10:24:05;;;;;;;19.88;10.93;;;6.80;99.90;;;;;;4997461;28;20026;-75
2020/12/15 10:26:31;;;;;;;17.88;11.20;;;6.90;99.90;;;;;;4996298;28;20030;-75
2020/12/15 10:28:57;;;;;;;17.70;10.68;;;7.00;99.90;;;;;;4997526;28;20097;-76
2020/12/15 10:31:23;;;;;;;21.17;10.88;;;7.20;99.90;;;;;;4997724;28;20157;-76
2020/12/15 10:33:49;;;;;;;22.45;12.27;;;7.30;99.90;;;;;;4997341;28;20524;-75
2020/12/15 10:36:16;;;;;;;18.65;11.52;;;7.50;99.90;;;;;;4997650;28;20042;-75
2020/12/15 10:38:43;;;;;;;18.52;10.75;;;7.50;99.90;;;;;;4997354;28;20105;-76
2020/12/15 10:41:08;;;;;;;18.35;11.15;;;7.70;99.90;;;;;;4995818;28;20393;-75
2020/12/15 10:43:34;;;;;;;15.65;10.15;;;7.90;99.90;;;;;;4995902;28;20105;-75
2020/12/15 10:46:01;;;;;;;16.95;11.40;;;8.10;99.90;;;;;;4995844;28;20026;-75
2020/12/15 10:48:26;;;;;;;17.48;10.05;;;8.30;99.90;;;;;;4997141;28;20022;-75
2020/12/15 10:50:52;;;;;;;14.50;9.85;;;8.20;99.90;;;;;;4995784;28;20039;-75
2020/12/15 10:53:18;;;;;;;17.45;11.15;;;8.30;99.90;;;;;;4996666;28;20022;-75
2020/12/15 10:55:49;;;;;;;17.55;11.45;;;8.70;99.90;;;;;;4997160;28;20153;-75
2020/12/15 10:58:16;;;;;;;16.15;10.77;;;8.90;99.90;;;;;;4996912;28;20027;-75
2020/12/15 11:00:41;;;;;;;16.17;11.45;;;9.20;99.90;;;;;;4995454;28;20393;-75
2020/12/15 11:03:07;;;;;;;16.67;11.07;;;9.40;99.90;;;;;;4996595;28;20029;-74
2020/12/15 11:05:33;;;;;;;18.95;11.50;;;9.40;99.90;;;;;;4996667;28;20027;-75
2020/12/15 11:07:58;;;;;;;15.80;11.20;;;9.20;99.90;;;;;;4995155;28;20022;-75
2020/12/15 11:10:24;;;;;;;16.10;11.93;;;9.00;99.90;;;;;;4996486;28;20034;-75
2020/12/15 11:12:49;;;;;;;16.58;11.55;;;8.90;99.90;;;;;;4996538;28;20034;-76
2020/12/15 11:15:15;;;;;;;16.65;11.60;;;9.00;99.90;;;;;;4995256;28;20027;-75
2020/12/15 11:17:40;;;;;;;17.65;12.15;;;9.20;99.90;;;;;;4996452;28;20030;-75
2020/12/15 11:20:06;;;;;;;18.60;12.50;;;9.40;99.90;;;;;;4995329;28;20400;-75
2020/12/15 11:22:32;;;;;;;17.45;12.02;;;9.40;99.90;;;;;;4994949;28;20040;-75
2020/12/15 11:24:58;;;;;;;17.50;12.00;;;9.30;99.90;;;;;;4995023;28;20054;-75
2020/12/15 11:27:23;;;;;;;18.73;13.48;;;9.20;99.90;;;;;;4996252;28;20125;-75
2020/12/15 11:29:49;;;;;;;16.98;11.32;;;8.90;99.90;;;;;;4995064;28;20030;-75
2020/12/15 11:32:14;;;;;;;16.10;11.77;;;8.60;99.90;;;;;;4994659;28;20199;-75
2020/12/15 11:34:40;;;;;;;19.35;12.13;;;8.30;99.90;;;;;;4996315;28;20042;-75
2020/12/15 11:37:09;;;;;;;16.60;11.18;;;8.00;99.90;;;;;;4995904;28;20034;-75
2020/12/15 11:39:41;;;;;;;15.77;11.20;;;7.80;99.90;;;;;;4995866;28;20101;-75
2020/12/15 11:42:08;;;;;;;20.08;12.93;;;7.60;99.90;;;;;;4994719;28;20603;-75
2020/12/15 11:44:37;;;;;;;18.67;13.13;;;7.40;99.90;;;;;;4996206;28;20029;-75
2020/12/15 11:47:03;;;;;;;17.75;11.00;;;7.20;99.90;;;;;;4995904;28;20022;-75
2020/12/15 11:49:28;;;;;;;18.30;12.30;;;7.10;99.90;;;;;;4996012;28;20023;-75
2020/12/15 11:51:55;;;;;;;15.75;12.13;;;7.00;99.90;;;;;;4995952;28;20050;-75
2020/12/15 11:54:21;;;;;;;16.48;11.98;;;6.80;99.90;;;;;;4995876;28;20101;-75
2020/12/15 11:56:46;;;;;;;18.77;12.13;;;6.70;99.90;;;;;;4994612;28;20060;-75
2020/12/15 11:59:13;;;;;;;16.83;10.82;;;6.60;99.90;;;;;;4994326;28;20105;-75
2020/12/15 12:01:39;;;;;;;17.48;12.23;;;6.60;99.90;;;;;;4994414;28;20026;-75
2020/12/15 12:04:05;;;;;;;38.10;12.52;;;6.60;99.90;;;;;;4994176;28;20563;-75
2020/12/15 12:06:31;;;;;;;19.10;13.02;;;6.60;99.90;;;;;;4994149;28;20034;-75
2020/12/15 12:08:57;;;;;;;16.75;12.23;;;6.60;99.90;;;;;;4995630;28;20019;-75
2020/12/15 12:11:23;;;;;;;21.60;13.70;;;6.60;99.90;;;;;;4995833;28;20497;-75
2020/12/15 12:13:48;;;;;;;18.55;12.18;;;6.70;99.90;;;;;;4995212;28;20101;-75
2020/12/15 12:16:14;;;;;;;19.45;13.38;;;6.70;99.90;;;;;;4994013;28;20035;-75
2020/12/15 12:18:39;;;;;;;20.30;11.88;;;6.60;99.90;;;;;;4995451;28;20565;-75
2020/12/15 12:21:05;;;;;;;18.27;12.40;;;6.50;99.90;;;;;;4993694;28;20030;-75
2020/12/15 12:23:30;;;;;;;16.83;12.18;;;6.40;99.90;;;;;;4993735;28;20030;-75
2020/12/15 12:25:56;;;;;;;18.77;12.70;;;6.40;99.90;;;;;;4993749;28;20018;-75
2020/12/15 12:28:22;;;;;;;17.73;13.18;;;6.30;99.90;;;;;;4995119;28;20037;-75
2020/12/15 12:30:47;;;;;;;20.00;12.57;;;6.30;99.90;;;;;;4993855;28;20027;-75
2020/12/15 12:33:13;;;;;;;20.08;12.90;;;6.30;99.90;;;;;;4993502;28;20041;-75
2020/12/15 12:35:38;;;;;;;18.20;12.45;;;6.20;99.90;;;;;;4993609;28;20057;-75
2020/12/15 12:38:04;;;;;;;21.65;13.82;;;6.20;99.90;;;;;;4994725;28;20397;-75
2020/12/15 12:40:29;;;;;;;17.17;12.23;;;6.20;99.90;;;;;;4994947;28;20062;-75